sensor_id;sensor_type;location;lat;lon;timestamp;P1;durP1;ratioP1;P2;durP2;ratioP2
20415;SDS011;10367;52.202;5.996;2022-11-11T00:01:21;24.33;;;14.03;;
20415;SDS011;10367;52.202;5.996;2022-11-11T00:03:53;26.80;;;14.43;;
20415;SDS011;10367;52.202;5.996;2022-11-11T00:06:23;23.30;;;13.40;;
20415;SDS011;10367;52.202;5.996;2022-11-11T00:08:51;25.27;;;14.13;;
20415;SDS011;10367;52.202;5.996;2022-11-11T00:11:20;25.10;;;15.13;;
20415;SDS011;10367;52.202;5.996;2022-11-11T00:13:49;25.67;;;13.33;;
20415;SDS011;10367;52.202;5.996;2022-11-11T00:16:21;22.83;;;13.03;;
20415;SDS011;10367;52.202;5.996;2022-11-11T00:18:50;24.90;;;14.17;;
20415;SDS011;10367;52.202;5.996;2022-11-11T00:21:36;21.97;;;13.70;;
20415;SDS011;10367;52.202;5.996;2022-11-11T00:24:23;24.17;;;13.90;;
20415;SDS011;10367;52.202;5.996;2022-11-11T00:27:12;25.50;;;13.23;;
20415;SDS011;10367;52.202;5.996;2022-11-11T00:29:46;24.43;;;14.20;;
20415;SDS011;10367;52.202;5.996;2022-11-11T00:32:15;24.80;;;14.60;;
20415;SDS011;10367;52.202;5.996;2022-11-11T00:34:55;26.30;;;15.03;;
20415;SDS011;10367;52.202;5.996;2022-11-11T00:37:43;26.77;;;16.03;;
20415;SDS011;10367;52.202;5.996;2022-11-11T00:40:15;23.73;;;14.23;;
20415;SDS011;10367;52.202;5.996;2022-11-11T00:42:44;29.10;;;15.60;;
20415;SDS011;10367;52.202;5.996;2022-11-11T00:45:15;30.97;;;15.93;;
20415;SDS011;10367;52.202;5.996;2022-11-11T00:47:46;33.60;;;17.67;;
20415;SDS011;10367;52.202;5.996;2022-11-11T00:50:35;30.10;;;16.03;;
20415;SDS011;10367;52.202;5.996;2022-11-11T00:53:22;31.10;;;15.80;;
20415;SDS011;10367;52.202;5.996;2022-11-11T00:55:54;29.40;;;17.00;;
20415;SDS011;10367;52.202;5.996;2022-11-11T00:58:24;30.13;;;16.67;;
20415;SDS011;10367;52.202;5.996;2022-11-11T01:00:56;29.80;;;17.97;;
20415;SDS011;10367;52.202;5.996;2022-11-11T01:03:25;29.43;;;18.77;;
20415;SDS011;10367;52.202;5.996;2022-11-11T01:05:58;35.57;;;17.87;;
20415;SDS011;10367;52.202;5.996;2022-11-11T01:08:28;37.43;;;20.43;;
20415;SDS011;10367;52.202;5.996;2022-11-11T01:10:58;32.47;;;19.00;;
20415;SDS011;10367;52.202;5.996;2022-11-11T01:13:27;30.20;;;18.70;;
20415;SDS011;10367;52.202;5.996;2022-11-11T01:16:00;36.53;;;19.93;;
20415;SDS011;10367;52.202;5.996;2022-11-11T01:18:29;27.63;;;17.30;;
20415;SDS011;10367;52.202;5.996;2022-11-11T01:21:09;32.40;;;18.27;;
20415;SDS011;10367;52.202;5.996;2022-11-11T01:23:42;40.93;;;19.10;;
20415;SDS011;10367;52.202;5.996;2022-11-11T01:26:14;29.47;;;17.00;;
20415;SDS011;10367;52.202;5.996;2022-11-11T01:28:47;39.73;;;19.43;;
20415;SDS011;10367;52.202;5.996;2022-11-11T01:31:19;27.07;;;17.00;;
20415;SDS011;10367;52.202;5.996;2022-11-11T01:33:52;33.90;;;19.87;;
20415;SDS011;10367;52.202;5.996;2022-11-11T01:36:22;32.97;;;18.97;;
20415;SDS011;10367;52.202;5.996;2022-11-11T01:38:53;35.00;;;19.10;;
20415;SDS011;10367;52.202;5.996;2022-11-11T01:41:24;33.33;;;20.50;;
20415;SDS011;10367;52.202;5.996;2022-11-11T01:44:11;34.67;;;19.77;;
20415;SDS011;10367;52.202;5.996;2022-11-11T01:47:07;28.17;;;18.13;;
20415;SDS011;10367;52.202;5.996;2022-11-11T01:49:38;30.67;;;18.53;;
20415;SDS011;10367;52.202;5.996;2022-11-11T01:52:12;30.77;;;18.57;;
20415;SDS011;10367;52.202;5.996;2022-11-11T01:54:48;35.93;;;19.80;;
20415;SDS011;10367;52.202;5.996;2022-11-11T01:57:23;37.27;;;20.00;;
20415;SDS011;10367;52.202;5.996;2022-11-11T01:59:55;32.93;;;19.43;;
20415;SDS011;10367;52.202;5.996;2022-11-11T02:02:33;32.47;;;19.87;;
20415;SDS011;10367;52.202;5.996;2022-11-11T02:05:08;32.67;;;19.20;;
20415;SDS011;10367;52.202;5.996;2022-11-11T02:07:55;36.77;;;20.43;;
20415;SDS011;10367;52.202;5.996;2022-11-11T02:10:27;31.37;;;19.17;;
20415;SDS011;10367;52.202;5.996;2022-11-11T02:12:59;38.40;;;20.60;;
20415;SDS011;10367;52.202;5.996;2022-11-11T02:15:45;31.07;;;19.57;;
20415;SDS011;10367;52.202;5.996;2022-11-11T02:18:16;35.63;;;20.23;;
20415;SDS011;10367;52.202;5.996;2022-11-11T02:20:45;34.57;;;21.20;;
20415;SDS011;10367;52.202;5.996;2022-11-11T02:23:16;29.93;;;17.77;;
20415;SDS011;10367;52.202;5.996;2022-11-11T02:25:51;36.70;;;19.43;;
20415;SDS011;10367;52.202;5.996;2022-11-11T02:28:23;36.07;;;19.03;;
20415;SDS011;10367;52.202;5.996;2022-11-11T02:30:54;30.23;;;19.07;;
20415;SDS011;10367;52.202;5.996;2022-11-11T02:33:23;25.67;;;17.80;;
20415;SDS011;10367;52.202;5.996;2022-11-11T02:35:53;34.93;;;20.23;;
20415;SDS011;10367;52.202;5.996;2022-11-11T02:38:24;33.37;;;20.17;;
20415;SDS011;10367;52.202;5.996;2022-11-11T02:40:55;40.83;;;21.83;;
20415;SDS011;10367;52.202;5.996;2022-11-11T02:43:42;28.77;;;18.63;;
20415;SDS011;10367;52.202;5.996;2022-11-11T02:46:15;27.27;;;18.30;;
20415;SDS011;10367;52.202;5.996;2022-11-11T02:48:47;35.50;;;20.87;;
20415;SDS011;10367;52.202;5.996;2022-11-11T02:51:16;35.60;;;18.93;;
20415;SDS011;10367;52.202;5.996;2022-11-11T02:53:45;37.20;;;21.40;;
20415;SDS011;10367;52.202;5.996;2022-11-11T02:56:15;32.10;;;18.97;;
20415;SDS011;10367;52.202;5.996;2022-11-11T02:59:04;33.03;;;19.00;;
20415;SDS011;10367;52.202;5.996;2022-11-11T03:01:33;33.33;;;19.53;;
20415;SDS011;10367;52.202;5.996;2022-11-11T03:04:02;30.13;;;17.83;;
20415;SDS011;10367;52.202;5.996;2022-11-11T03:06:31;28.60;;;17.97;;
20415;SDS011;10367;52.202;5.996;2022-11-11T03:09:03;34.80;;;19.33;;
20415;SDS011;10367;52.202;5.996;2022-11-11T03:11:33;35.67;;;18.70;;
20415;SDS011;10367;52.202;5.996;2022-11-11T03:14:04;32.03;;;19.40;;
20415;SDS011;10367;52.202;5.996;2022-11-11T03:16:34;31.93;;;19.90;;
20415;SDS011;10367;52.202;5.996;2022-11-11T03:19:20;32.33;;;18.13;;
20415;SDS011;10367;52.202;5.996;2022-11-11T03:21:49;37.40;;;20.10;;
20415;SDS011;10367;52.202;5.996;2022-11-11T03:24:37;30.50;;;17.17;;
20415;SDS011;10367;52.202;5.996;2022-11-11T03:27:25;32.70;;;18.10;;
20415;SDS011;10367;52.202;5.996;2022-11-11T03:29:53;32.90;;;20.70;;
20415;SDS011;10367;52.202;5.996;2022-11-11T03:32:25;31.80;;;19.90;;
20415;SDS011;10367;52.202;5.996;2022-11-11T03:34:53;47.27;;;21.30;;
20415;SDS011;10367;52.202;5.996;2022-11-11T03:37:22;35.23;;;20.00;;
20415;SDS011;10367;52.202;5.996;2022-11-11T03:40:09;33.67;;;18.30;;
20415;SDS011;10367;52.202;5.996;2022-11-11T03:42:39;28.60;;;17.77;;
20415;SDS011;10367;52.202;5.996;2022-11-11T03:45:09;28.77;;;16.83;;
20415;SDS011;10367;52.202;5.996;2022-11-11T03:47:38;30.50;;;18.50;;
20415;SDS011;10367;52.202;5.996;2022-11-11T03:50:07;33.80;;;19.20;;
20415;SDS011;10367;52.202;5.996;2022-11-11T03:52:39;32.53;;;18.53;;
20415;SDS011;10367;52.202;5.996;2022-11-11T03:55:09;31.70;;;18.47;;
20415;SDS011;10367;52.202;5.996;2022-11-11T03:57:40;32.87;;;18.43;;
20415;SDS011;10367;52.202;5.996;2022-11-11T04:00:12;32.23;;;18.40;;
20415;SDS011;10367;52.202;5.996;2022-11-11T04:02:43;30.37;;;18.67;;
20415;SDS011;10367;52.202;5.996;2022-11-11T04:05:32;32.27;;;18.00;;
20415;SDS011;10367;52.202;5.996;2022-11-11T04:08:20;29.47;;;18.53;;
20415;SDS011;10367;52.202;5.996;2022-11-11T04:11:04;34.10;;;20.63;;
20415;SDS011;10367;52.202;5.996;2022-11-11T04:13:36;23.93;;;16.03;;
20415;SDS011;10367;52.202;5.996;2022-11-11T04:16:23;25.63;;;17.17;;
20415;SDS011;10367;52.202;5.996;2022-11-11T04:18:52;27.30;;;17.70;;
20415;SDS011;10367;52.202;5.996;2022-11-11T04:21:38;24.97;;;17.63;;
20415;SDS011;10367;52.202;5.996;2022-11-11T04:24:11;29.93;;;18.47;;
20415;SDS011;10367;52.202;5.996;2022-11-11T04:27:00;27.23;;;17.60;;
20415;SDS011;10367;52.202;5.996;2022-11-11T04:29:32;34.80;;;18.27;;
20415;SDS011;10367;52.202;5.996;2022-11-11T04:32:00;32.77;;;18.60;;
20415;SDS011;10367;52.202;5.996;2022-11-11T04:34:48;35.57;;;18.90;;
20415;SDS011;10367;52.202;5.996;2022-11-11T04:37:20;28.20;;;17.80;;
20415;SDS011;10367;52.202;5.996;2022-11-11T04:39:50;32.53;;;18.10;;
20415;SDS011;10367;52.202;5.996;2022-11-11T04:42:36;32.73;;;16.67;;
20415;SDS011;10367;52.202;5.996;2022-11-11T04:45:08;35.57;;;16.93;;
20415;SDS011;10367;52.202;5.996;2022-11-11T04:47:58;32.30;;;17.83;;
20415;SDS011;10367;52.202;5.996;2022-11-11T04:50:29;27.37;;;17.00;;
20415;SDS011;10367;52.202;5.996;2022-11-11T04:52:58;31.67;;;18.10;;
20415;SDS011;10367;52.202;5.996;2022-11-11T04:55:28;29.33;;;17.20;;
20415;SDS011;10367;52.202;5.996;2022-11-11T04:58:15;29.70;;;17.17;;
20415;SDS011;10367;52.202;5.996;2022-11-11T05:00:47;27.77;;;16.57;;
20415;SDS011;10367;52.202;5.996;2022-11-11T05:03:16;26.40;;;15.70;;
20415;SDS011;10367;52.202;5.996;2022-11-11T05:05:48;27.07;;;15.43;;
20415;SDS011;10367;52.202;5.996;2022-11-11T05:08:37;31.70;;;16.30;;
20415;SDS011;10367;52.202;5.996;2022-11-11T05:11:26;27.67;;;16.43;;
20415;SDS011;10367;52.202;5.996;2022-11-11T05:13:57;34.47;;;18.57;;
20415;SDS011;10367;52.202;5.996;2022-11-11T05:16:45;25.47;;;15.13;;
20415;SDS011;10367;52.202;5.996;2022-11-11T05:19:33;22.27;;;14.90;;
20415;SDS011;10367;52.202;5.996;2022-11-11T05:22:20;25.47;;;16.47;;
20415;SDS011;10367;52.202;5.996;2022-11-11T05:24:50;27.00;;;17.07;;
20415;SDS011;10367;52.202;5.996;2022-11-11T05:27:37;26.07;;;15.93;;
20415;SDS011;10367;52.202;5.996;2022-11-11T05:30:06;35.77;;;17.87;;
20415;SDS011;10367;52.202;5.996;2022-11-11T05:32:38;26.63;;;16.13;;
20415;SDS011;10367;52.202;5.996;2022-11-11T05:35:07;21.23;;;15.57;;
20415;SDS011;10367;52.202;5.996;2022-11-11T05:37:38;22.23;;;15.27;;
20415;SDS011;10367;52.202;5.996;2022-11-11T05:40:07;26.00;;;16.07;;
20415;SDS011;10367;52.202;5.996;2022-11-11T05:42:40;25.03;;;16.57;;
20415;SDS011;10367;52.202;5.996;2022-11-11T05:45:19;32.47;;;17.20;;
20415;SDS011;10367;52.202;5.996;2022-11-11T05:48:04;27.97;;;17.07;;
20415;SDS011;10367;52.202;5.996;2022-11-11T05:50:33;24.13;;;15.70;;
20415;SDS011;10367;52.202;5.996;2022-11-11T05:53:08;28.17;;;15.73;;
20415;SDS011;10367;52.202;5.996;2022-11-11T05:55:36;27.07;;;15.07;;
20415;SDS011;10367;52.202;5.996;2022-11-11T05:58:05;28.20;;;16.97;;
20415;SDS011;10367;52.202;5.996;2022-11-11T06:00:34;30.27;;;17.30;;
20415;SDS011;10367;52.202;5.996;2022-11-11T06:03:04;37.33;;;16.70;;
20415;SDS011;10367;52.202;5.996;2022-11-11T06:05:34;29.33;;;15.90;;
20415;SDS011;10367;52.202;5.996;2022-11-11T06:08:03;22.07;;;14.30;;
20415;SDS011;10367;52.202;5.996;2022-11-11T06:10:32;28.57;;;15.37;;
20415;SDS011;10367;52.202;5.996;2022-11-11T06:13:01;29.27;;;16.57;;
20415;SDS011;10367;52.202;5.996;2022-11-11T06:15:33;24.30;;;15.47;;
20415;SDS011;10367;52.202;5.996;2022-11-11T06:18:06;23.27;;;13.73;;
20415;SDS011;10367;52.202;5.996;2022-11-11T06:20:38;20.07;;;14.27;;
20415;SDS011;10367;52.202;5.996;2022-11-11T06:23:07;28.97;;;16.73;;
20415;SDS011;10367;52.202;5.996;2022-11-11T06:25:38;21.47;;;14.67;;
20415;SDS011;10367;52.202;5.996;2022-11-11T06:28:24;24.77;;;15.53;;
20415;SDS011;10367;52.202;5.996;2022-11-11T06:30:53;28.93;;;14.87;;
20415;SDS011;10367;52.202;5.996;2022-11-11T06:33:23;21.67;;;14.93;;
20415;SDS011;10367;52.202;5.996;2022-11-11T06:35:57;23.07;;;15.43;;
20415;SDS011;10367;52.202;5.996;2022-11-11T06:38:29;33.70;;;15.70;;
20415;SDS011;10367;52.202;5.996;2022-11-11T06:40:58;26.93;;;16.70;;
20415;SDS011;10367;52.202;5.996;2022-11-11T06:43:27;28.33;;;16.03;;
20415;SDS011;10367;52.202;5.996;2022-11-11T06:45:59;25.17;;;15.93;;
20415;SDS011;10367;52.202;5.996;2022-11-11T06:48:36;19.97;;;14.57;;
20415;SDS011;10367;52.202;5.996;2022-11-11T06:51:10;25.00;;;16.80;;
20415;SDS011;10367;52.202;5.996;2022-11-11T06:53:40;23.97;;;14.17;;
20415;SDS011;10367;52.202;5.996;2022-11-11T06:56:10;24.00;;;14.70;;
20415;SDS011;10367;52.202;5.996;2022-11-11T06:58:39;28.90;;;14.83;;
20415;SDS011;10367;52.202;5.996;2022-11-11T07:01:12;24.60;;;15.23;;
20415;SDS011;10367;52.202;5.996;2022-11-11T07:03:46;24.10;;;15.47;;
20415;SDS011;10367;52.202;5.996;2022-11-11T07:06:16;27.60;;;16.43;;
20415;SDS011;10367;52.202;5.996;2022-11-11T07:08:45;23.73;;;15.73;;
20415;SDS011;10367;52.202;5.996;2022-11-11T07:11:13;19.53;;;14.33;;
20415;SDS011;10367;52.202;5.996;2022-11-11T07:13:46;24.83;;;15.17;;
20415;SDS011;10367;52.202;5.996;2022-11-11T07:16:18;20.90;;;14.87;;
20415;SDS011;10367;52.202;5.996;2022-11-11T07:18:49;21.43;;;15.17;;
20415;SDS011;10367;52.202;5.996;2022-11-11T07:21:18;29.00;;;15.70;;
20415;SDS011;10367;52.202;5.996;2022-11-11T07:23:47;24.80;;;14.53;;
20415;SDS011;10367;52.202;5.996;2022-11-11T07:26:21;21.20;;;14.57;;
20415;SDS011;10367;52.202;5.996;2022-11-11T07:28:50;25.40;;;15.33;;
20415;SDS011;10367;52.202;5.996;2022-11-11T07:31:19;21.37;;;15.43;;
20415;SDS011;10367;52.202;5.996;2022-11-11T07:33:50;24.37;;;15.73;;
20415;SDS011;10367;52.202;5.996;2022-11-11T07:36:20;25.67;;;14.97;;
20415;SDS011;10367;52.202;5.996;2022-11-11T07:38:51;26.23;;;15.53;;
20415;SDS011;10367;52.202;5.996;2022-11-11T07:41:34;27.60;;;14.37;;
20415;SDS011;10367;52.202;5.996;2022-11-11T07:44:03;23.57;;;15.60;;
20415;SDS011;10367;52.202;5.996;2022-11-11T07:46:31;30.20;;;16.80;;
20415;SDS011;10367;52.202;5.996;2022-11-11T07:49:01;29.27;;;16.60;;
20415;SDS011;10367;52.202;5.996;2022-11-11T07:51:30;27.13;;;16.20;;
20415;SDS011;10367;52.202;5.996;2022-11-11T07:53:59;23.67;;;15.77;;
20415;SDS011;10367;52.202;5.996;2022-11-11T07:56:28;20.97;;;14.80;;
20415;SDS011;10367;52.202;5.996;2022-11-11T07:58:56;31.73;;;16.97;;
20415;SDS011;10367;52.202;5.996;2022-11-11T08:01:25;27.03;;;14.47;;
20415;SDS011;10367;52.202;5.996;2022-11-11T08:03:54;21.50;;;15.17;;
20415;SDS011;10367;52.202;5.996;2022-11-11T08:06:24;22.53;;;15.57;;
20415;SDS011;10367;52.202;5.996;2022-11-11T08:08:53;27.50;;;16.50;;
20415;SDS011;10367;52.202;5.996;2022-11-11T08:11:22;24.43;;;14.87;;
20415;SDS011;10367;52.202;5.996;2022-11-11T08:14:04;25.53;;;15.50;;
20415;SDS011;10367;52.202;5.996;2022-11-11T08:16:33;24.03;;;15.83;;
20415;SDS011;10367;52.202;5.996;2022-11-11T08:19:02;23.90;;;15.13;;
20415;SDS011;10367;52.202;5.996;2022-11-11T08:21:32;22.33;;;15.00;;
20415;SDS011;10367;52.202;5.996;2022-11-11T08:24:01;22.30;;;14.47;;
20415;SDS011;10367;52.202;5.996;2022-11-11T08:26:50;20.33;;;14.27;;
20415;SDS011;10367;52.202;5.996;2022-11-11T08:29:19;24.03;;;15.93;;
20415;SDS011;10367;52.202;5.996;2022-11-11T08:31:48;27.50;;;16.37;;
20415;SDS011;10367;52.202;5.996;2022-11-11T08:34:18;20.27;;;13.67;;
20415;SDS011;10367;52.202;5.996;2022-11-11T08:36:49;22.43;;;14.97;;
20415;SDS011;10367;52.202;5.996;2022-11-11T08:39:18;24.47;;;15.13;;
20415;SDS011;10367;52.202;5.996;2022-11-11T08:41:46;21.83;;;14.83;;
20415;SDS011;10367;52.202;5.996;2022-11-11T08:44:15;19.77;;;13.90;;
20415;SDS011;10367;52.202;5.996;2022-11-11T08:46:44;25.83;;;16.00;;
20415;SDS011;10367;52.202;5.996;2022-11-11T08:49:13;23.50;;;15.87;;
20415;SDS011;10367;52.202;5.996;2022-11-11T08:51:42;23.07;;;16.33;;
20415;SDS011;10367;52.202;5.996;2022-11-11T08:54:12;23.60;;;15.07;;
20415;SDS011;10367;52.202;5.996;2022-11-11T08:56:42;26.00;;;16.37;;
20415;SDS011;10367;52.202;5.996;2022-11-11T08:59:11;26.87;;;16.33;;
20415;SDS011;10367;52.202;5.996;2022-11-11T09:01:39;27.93;;;16.17;;
20415;SDS011;10367;52.202;5.996;2022-11-11T09:04:08;25.80;;;16.07;;
20415;SDS011;10367;52.202;5.996;2022-11-11T09:06:57;29.77;;;17.93;;
20415;SDS011;10367;52.202;5.996;2022-11-11T09:09:27;30.50;;;17.63;;
20415;SDS011;10367;52.202;5.996;2022-11-11T09:11:56;27.63;;;17.57;;
20415;SDS011;10367;52.202;5.996;2022-11-11T09:14:25;23.60;;;15.97;;
20415;SDS011;10367;52.202;5.996;2022-11-11T09:16:54;24.67;;;17.43;;
20415;SDS011;10367;52.202;5.996;2022-11-11T09:19:23;22.60;;;15.47;;
20415;SDS011;10367;52.202;5.996;2022-11-11T09:21:52;22.20;;;15.20;;
20415;SDS011;10367;52.202;5.996;2022-11-11T09:24:21;20.30;;;15.00;;
20415;SDS011;10367;52.202;5.996;2022-11-11T09:26:51;26.50;;;16.80;;
20415;SDS011;10367;52.202;5.996;2022-11-11T09:29:20;24.83;;;16.33;;
20415;SDS011;10367;52.202;5.996;2022-11-11T09:31:48;26.50;;;17.07;;
20415;SDS011;10367;52.202;5.996;2022-11-11T09:34:17;27.90;;;16.93;;
20415;SDS011;10367;52.202;5.996;2022-11-11T09:36:46;21.67;;;14.57;;
20415;SDS011;10367;52.202;5.996;2022-11-11T09:39:16;25.37;;;16.83;;
20415;SDS011;10367;52.202;5.996;2022-11-11T09:41:47;22.87;;;15.27;;
20415;SDS011;10367;52.202;5.996;2022-11-11T09:44:37;27.60;;;17.20;;
20415;SDS011;10367;52.202;5.996;2022-11-11T09:47:30;26.23;;;16.50;;
20415;SDS011;10367;52.202;5.996;2022-11-11T09:50:04;26.17;;;16.00;;
20415;SDS011;10367;52.202;5.996;2022-11-11T09:52:36;19.53;;;15.10;;
20415;SDS011;10367;52.202;5.996;2022-11-11T09:55:14;22.90;;;16.03;;
20415;SDS011;10367;52.202;5.996;2022-11-11T09:57:47;20.23;;;15.23;;
20415;SDS011;10367;52.202;5.996;2022-11-11T10:00:24;25.70;;;15.97;;
20415;SDS011;10367;52.202;5.996;2022-11-11T10:02:56;29.50;;;16.47;;
20415;SDS011;10367;52.202;5.996;2022-11-11T10:05:33;24.00;;;14.97;;
20415;SDS011;10367;52.202;5.996;2022-11-11T10:08:09;19.20;;;14.57;;
20415;SDS011;10367;52.202;5.996;2022-11-11T10:10:44;20.43;;;14.77;;
20415;SDS011;10367;52.202;5.996;2022-11-11T10:13:16;22.37;;;15.83;;
20415;SDS011;10367;52.202;5.996;2022-11-11T10:15:53;28.00;;;16.60;;
20415;SDS011;10367;52.202;5.996;2022-11-11T10:18:29;25.47;;;16.87;;
20415;SDS011;10367;52.202;5.996;2022-11-11T10:21:10;21.30;;;15.37;;
20415;SDS011;10367;52.202;5.996;2022-11-11T10:23:45;22.10;;;13.90;;
20415;SDS011;10367;52.202;5.996;2022-11-11T10:26:17;21.63;;;15.17;;
20415;SDS011;10367;52.202;5.996;2022-11-11T10:28:49;21.97;;;14.77;;
20415;SDS011;10367;52.202;5.996;2022-11-11T10:31:21;21.40;;;15.07;;
20415;SDS011;10367;52.202;5.996;2022-11-11T10:33:53;21.20;;;14.80;;
20415;SDS011;10367;52.202;5.996;2022-11-11T10:36:25;22.40;;;15.80;;
20415;SDS011;10367;52.202;5.996;2022-11-11T10:39:03;24.57;;;15.53;;
20415;SDS011;10367;52.202;5.996;2022-11-11T10:41:33;20.93;;;14.83;;
20415;SDS011;10367;52.202;5.996;2022-11-11T10:44:19;24.10;;;16.00;;
20415;SDS011;10367;52.202;5.996;2022-11-11T10:46:51;25.27;;;14.97;;
20415;SDS011;10367;52.202;5.996;2022-11-11T10:49:26;22.73;;;15.30;;
20415;SDS011;10367;52.202;5.996;2022-11-11T10:52:00;25.03;;;16.73;;
20415;SDS011;10367;52.202;5.996;2022-11-11T10:54:37;23.10;;;15.77;;
20415;SDS011;10367;52.202;5.996;2022-11-11T10:57:11;25.20;;;16.77;;
20415;SDS011;10367;52.202;5.996;2022-11-11T10:59:46;20.00;;;14.47;;
20415;SDS011;10367;52.202;5.996;2022-11-11T11:02:20;17.70;;;14.53;;
20415;SDS011;10367;52.202;5.996;2022-11-11T11:04:54;17.47;;;13.87;;
20415;SDS011;10367;52.202;5.996;2022-11-11T11:07:29;19.97;;;15.30;;
20415;SDS011;10367;52.202;5.996;2022-11-11T11:10:05;19.73;;;15.50;;
20415;SDS011;10367;52.202;5.996;2022-11-11T11:12:41;17.67;;;15.47;;
20415;SDS011;10367;52.202;5.996;2022-11-11T11:15:16;23.87;;;17.33;;
20415;SDS011;10367;52.202;5.996;2022-11-11T11:17:50;16.50;;;14.73;;
20415;SDS011;10367;52.202;5.996;2022-11-11T11:20:23;19.77;;;15.53;;
20415;SDS011;10367;52.202;5.996;2022-11-11T11:22:52;18.40;;;15.47;;
20415;SDS011;10367;52.202;5.996;2022-11-11T11:25:25;22.83;;;17.60;;
20415;SDS011;10367;52.202;5.996;2022-11-11T11:28:03;17.63;;;15.77;;
20415;SDS011;10367;52.202;5.996;2022-11-11T11:30:35;19.63;;;15.20;;
20415;SDS011;10367;52.202;5.996;2022-11-11T11:33:04;23.63;;;16.77;;
20415;SDS011;10367;52.202;5.996;2022-11-11T11:35:35;17.77;;;15.80;;
20415;SDS011;10367;52.202;5.996;2022-11-11T11:38:05;21.20;;;17.20;;
20415;SDS011;10367;52.202;5.996;2022-11-11T11:40:49;21.07;;;15.43;;
20415;SDS011;10367;52.202;5.996;2022-11-11T11:43:26;17.87;;;15.93;;
20415;SDS011;10367;52.202;5.996;2022-11-11T11:46:02;17.70;;;15.40;;
20415;SDS011;10367;52.202;5.996;2022-11-11T11:48:46;17.73;;;15.87;;
20415;SDS011;10367;52.202;5.996;2022-11-11T11:51:28;18.00;;;15.43;;
20415;SDS011;10367;52.202;5.996;2022-11-11T11:54:03;18.17;;;15.90;;
20415;SDS011;10367;52.202;5.996;2022-11-11T11:57:01;17.03;;;15.43;;
20415;SDS011;10367;52.202;5.996;2022-11-11T11:59:36;16.30;;;14.57;;
20415;SDS011;10367;52.202;5.996;2022-11-11T12:02:15;17.70;;;15.80;;
20415;SDS011;10367;52.202;5.996;2022-11-11T12:05:07;20.30;;;16.97;;
20415;SDS011;10367;52.202;5.996;2022-11-11T12:07:51;16.73;;;15.27;;
20415;SDS011;10367;52.202;5.996;2022-11-11T12:10:31;20.60;;;16.40;;
20415;SDS011;10367;52.202;5.996;2022-11-11T12:13:12;17.70;;;15.97;;
20415;SDS011;10367;52.202;5.996;2022-11-11T12:15:52;19.97;;;17.10;;
20415;SDS011;10367;52.202;5.996;2022-11-11T12:21:23;18.97;;;15.63;;
20415;SDS011;10367;52.202;5.996;2022-11-11T12:23:57;20.57;;;15.97;;
20415;SDS011;10367;52.202;5.996;2022-11-11T12:26:32;18.27;;;16.43;;
20415;SDS011;10367;52.202;5.996;2022-11-11T12:29:20;16.87;;;15.10;;
20415;SDS011;10367;52.202;5.996;2022-11-11T12:32:01;19.50;;;17.17;;
20415;SDS011;10367;52.202;5.996;2022-11-11T12:35:04;16.60;;;15.10;;
20415;SDS011;10367;52.202;5.996;2022-11-11T12:37:46;17.27;;;15.60;;
20415;SDS011;10367;52.202;5.996;2022-11-11T12:40:26;22.53;;;15.57;;
20415;SDS011;10367;52.202;5.996;2022-11-11T12:43:08;17.73;;;15.93;;
20415;SDS011;10367;52.202;5.996;2022-11-11T12:45:46;17.53;;;15.80;;
20415;SDS011;10367;52.202;5.996;2022-11-11T12:48:26;15.17;;;13.97;;
20415;SDS011;10367;52.202;5.996;2022-11-11T12:51:08;21.03;;;18.03;;
20415;SDS011;10367;52.202;5.996;2022-11-11T12:53:46;18.53;;;15.23;;
20415;SDS011;10367;52.202;5.996;2022-11-11T12:56:23;16.50;;;15.03;;
20415;SDS011;10367;52.202;5.996;2022-11-11T12:59:01;17.50;;;15.67;;
20415;SDS011;10367;52.202;5.996;2022-11-11T13:01:37;16.33;;;14.80;;
20415;SDS011;10367;52.202;5.996;2022-11-11T13:04:32;18.73;;;14.73;;
20415;SDS011;10367;52.202;5.996;2022-11-11T13:07:24;18.17;;;16.30;;
20415;SDS011;10367;52.202;5.996;2022-11-11T13:10:22;18.53;;;15.97;;
20415;SDS011;10367;52.202;5.996;2022-11-11T13:13:00;18.53;;;15.50;;
20415;SDS011;10367;52.202;5.996;2022-11-11T13:15:37;17.97;;;15.13;;
20415;SDS011;10367;52.202;5.996;2022-11-11T13:18:09;19.63;;;16.73;;
20415;SDS011;10367;52.202;5.996;2022-11-11T13:20:43;16.67;;;15.03;;
20415;SDS011;10367;52.202;5.996;2022-11-11T13:23:19;20.93;;;17.10;;
20415;SDS011;10367;52.202;5.996;2022-11-11T13:25:53;19.57;;;15.60;;
20415;SDS011;10367;52.202;5.996;2022-11-11T13:28:28;15.00;;;13.50;;
20415;SDS011;10367;52.202;5.996;2022-11-11T13:31:06;23.03;;;16.07;;
20415;SDS011;10367;52.202;5.996;2022-11-11T13:33:44;16.33;;;14.77;;
20415;SDS011;10367;52.202;5.996;2022-11-11T13:36:16;19.80;;;16.47;;
20415;SDS011;10367;52.202;5.996;2022-11-11T13:38:50;16.93;;;14.37;;
20415;SDS011;10367;52.202;5.996;2022-11-11T13:41:22;19.30;;;15.80;;
20415;SDS011;10367;52.202;5.996;2022-11-11T13:43:53;16.57;;;14.10;;
20415;SDS011;10367;52.202;5.996;2022-11-11T13:49:20;18.60;;;15.47;;
20415;SDS011;10367;52.202;5.996;2022-11-11T13:51:58;17.13;;;15.33;;
20415;SDS011;10367;52.202;5.996;2022-11-11T13:54:32;15.70;;;14.10;;
20415;SDS011;10367;52.202;5.996;2022-11-11T13:57:04;16.13;;;14.57;;
20415;SDS011;10367;52.202;5.996;2022-11-11T13:59:37;15.20;;;13.70;;
20415;SDS011;10367;52.202;5.996;2022-11-11T14:02:11;17.60;;;15.13;;
20415;SDS011;10367;52.202;5.996;2022-11-11T14:11:10;17.03;;;15.13;;
20415;SDS011;10367;52.202;5.996;2022-11-11T14:13:56;17.67;;;14.10;;
20415;SDS011;10367;52.202;5.996;2022-11-11T14:19:29;15.00;;;13.43;;
20415;SDS011;10367;52.202;5.996;2022-11-11T14:22:00;16.30;;;13.93;;
20415;SDS011;10367;52.202;5.996;2022-11-11T14:24:33;17.37;;;13.70;;
20415;SDS011;10367;52.202;5.996;2022-11-11T14:27:13;17.30;;;14.90;;
20415;SDS011;10367;52.202;5.996;2022-11-11T14:29:48;13.40;;;12.10;;
20415;SDS011;10367;52.202;5.996;2022-11-11T14:32:22;14.03;;;12.77;;
20415;SDS011;10367;52.202;5.996;2022-11-11T14:35:11;17.20;;;14.63;;
20415;SDS011;10367;52.202;5.996;2022-11-11T14:38:00;13.80;;;12.43;;
20415;SDS011;10367;52.202;5.996;2022-11-11T14:40:40;13.73;;;12.47;;
20415;SDS011;10367;52.202;5.996;2022-11-11T14:46:06;14.67;;;11.93;;
20415;SDS011;10367;52.202;5.996;2022-11-11T14:48:53;13.50;;;12.10;;
20415;SDS011;10367;52.202;5.996;2022-11-11T14:51:36;15.63;;;13.97;;
20415;SDS011;10367;52.202;5.996;2022-11-11T14:54:16;18.83;;;14.90;;
20415;SDS011;10367;52.202;5.996;2022-11-11T14:57:06;13.27;;;11.97;;
20415;SDS011;10367;52.202;5.996;2022-11-11T14:59:44;13.13;;;11.93;;
20415;SDS011;10367;52.202;5.996;2022-11-11T15:02:24;15.17;;;13.47;;
20415;SDS011;10367;52.202;5.996;2022-11-11T15:04:59;14.47;;;12.77;;
20415;SDS011;10367;52.202;5.996;2022-11-11T15:07:38;13.90;;;12.63;;
20415;SDS011;10367;52.202;5.996;2022-11-11T15:10:25;17.23;;;13.37;;
20415;SDS011;10367;52.202;5.996;2022-11-11T15:16:07;13.70;;;12.17;;
20415;SDS011;10367;52.202;5.996;2022-11-11T15:18:43;14.83;;;12.10;;
20415;SDS011;10367;52.202;5.996;2022-11-11T15:21:26;16.87;;;13.30;;
20415;SDS011;10367;52.202;5.996;2022-11-11T15:24:04;17.07;;;13.03;;
20415;SDS011;10367;52.202;5.996;2022-11-11T15:26:48;12.60;;;10.90;;